createdAt,value
2018-12-05T00:02:11.108Z,99209.63
2018-12-05T00:04:40.267Z,99213.42
2018-12-05T00:07:09.445Z,99214.78
2018-12-05T00:09:38.861Z,99217.08
2018-12-05T00:12:08.020Z,99219.00
2018-12-05T00:14:37.270Z,99221.90
2018-12-05T00:17:06.451Z,99224.98
2018-12-05T00:19:35.704Z,99228.00
2018-12-05T00:22:05.216Z,99231.53
2018-12-05T00:24:34.434Z,99227.27
2018-12-05T00:27:03.727Z,99220.88
2018-12-05T00:29:32.886Z,99227.27
2018-12-05T00:32:02.345Z,99232.77
2018-12-05T00:34:31.947Z,99242.91
2018-12-05T00:37:01.148Z,99242.75
2018-12-05T00:39:30.302Z,99246.86
2018-12-05T00:41:59.485Z,99230.59
2018-12-05T00:44:28.718Z,99238.23
2018-12-05T00:46:57.895Z,99235.56
2018-12-05T00:49:27.105Z,99232.06
2018-12-05T00:51:56.265Z,99236.35
2018-12-05T00:54:25.417Z,99239.52
2018-12-05T00:56:54.607Z,99240.53
2018-12-05T00:59:24.147Z,99235.38
2018-12-05T01:01:53.344Z,99232.06
2018-12-05T01:04:22.641Z,99227.40
2018-12-05T01:06:52.044Z,99226.98
2018-12-05T01:09:21.259Z,99231.65
2018-12-05T01:11:50.442Z,99237.33
2018-12-05T01:14:20.142Z,99242.91
2018-12-05T01:16:49.312Z,99246.37
2018-12-05T01:19:18.479Z,99251.48
2018-12-05T01:21:47.775Z,99254.53
2018-12-05T01:24:16.948Z,99255.93
2018-12-05T01:26:46.626Z,99245.76
2018-12-05T01:29:15.791Z,99241.81
2018-12-05T01:31:44.984Z,99243.91
2018-12-05T01:34:24.617Z,99236.34
2018-12-05T01:36:53.991Z,99244.52
2018-12-05T01:39:23.140Z,99252.23
2018-12-05T01:41:52.319Z,99252.20
2018-12-05T01:44:21.510Z,99235.93
2018-12-05T01:46:50.679Z,99231.98
2018-12-05T01:49:19.838Z,99238.80
2018-12-05T01:51:49.112Z,99235.06
2018-12-05T01:54:18.281Z,99238.56
2018-12-05T01:56:47.878Z,99227.97
2018-12-05T01:59:17.202Z,99228.88
2018-12-05T02:01:46.342Z,99229.39
2018-12-05T02:04:15.526Z,99222.61
2018-12-05T02:06:44.677Z,99226.45
2018-12-05T02:09:14.179Z,99227.73
2018-12-05T02:11:43.372Z,99218.31
2018-12-05T02:14:12.540Z,99222.54
2018-12-05T02:16:41.749Z,99218.77
2018-12-05T02:19:10.944Z,99215.47
2018-12-05T02:21:40.648Z,99224.47
2018-12-05T02:24:09.843Z,99228.31
2018-12-05T02:26:39.223Z,99227.83
2018-12-05T02:29:08.392Z,99225.27
2018-12-05T02:31:37.545Z,99229.05
2018-12-05T02:34:06.738Z,99234.17
2018-12-05T02:36:35.895Z,99237.59
2018-12-05T02:39:07.701Z,99234.62
2018-12-05T02:41:37.024Z,99230.33
2018-12-05T02:44:06.676Z,99233.30
2018-12-05T02:46:35.893Z,99234.58
2018-12-05T02:49:05.096Z,99233.69
2018-12-05T02:51:34.420Z,99234.52
2018-12-05T02:54:03.796Z,99232.02
2018-12-05T02:56:33.006Z,99235.41
2018-12-05T02:59:02.178Z,99233.27
2018-12-05T03:01:31.363Z,99246.53
2018-12-05T03:04:04.191Z,99243.55
2018-12-05T03:06:33.393Z,99236.77
2018-12-05T03:09:02.596Z,99236.70
2018-12-05T03:11:32.211Z,99227.73
2018-12-05T03:14:01.402Z,99221.74
2018-12-05T03:16:30.546Z,99218.28
2018-12-05T03:18:59.715Z,99213.95
2018-12-05T03:21:28.907Z,99222.09
2018-12-05T03:23:58.099Z,99213.09
2018-12-05T03:26:27.254Z,99210.53
2018-12-05T03:28:56.422Z,99199.84
2018-12-05T03:31:25.603Z,99195.16
2018-12-05T03:33:54.775Z,99199.84
2018-12-05T03:36:23.949Z,99193.02
2018-12-05T03:38:53.166Z,99189.04
2018-12-05T03:41:22.553Z,99197.07
2018-12-05T03:43:51.792Z,99188.48
2018-12-05T03:46:20.959Z,99189.31
2018-12-05T03:48:50.151Z,99188.83
2018-12-05T03:51:19.305Z,99182.47
2018-12-05T03:53:48.461Z,99179.45
2018-12-05T03:56:17.714Z,99184.95
2018-12-05T03:58:46.888Z,99183.61
2018-12-05T04:01:16.073Z,99194.19
2018-12-05T04:03:45.276Z,99187.30
2018-12-05T04:06:14.483Z,99193.70
2018-12-05T04:08:43.625Z,99197.05
2018-12-05T04:11:12.808Z,99200.37
2018-12-05T04:13:42.003Z,99204.48
2018-12-05T04:16:11.194Z,99208.28
2018-12-05T04:18:40.374Z,99210.27
2018-12-05T04:21:09.533Z,99215.23
2018-12-05T04:23:38.679Z,99221.70
2018-12-05T04:26:07.866Z,99225.47
2018-12-05T04:28:37.008Z,99230.17
2018-12-05T04:31:06.222Z,99228.06
2018-12-05T04:33:35.392Z,99241.84
2018-12-05T04:36:04.575Z,99243.88
2018-12-05T04:38:33.746Z,99237.44
2018-12-05T04:41:02.919Z,99244.36
2018-12-05T04:43:32.119Z,99253.20
2018-12-05T04:46:01.265Z,99255.30
2018-12-05T04:48:30.441Z,99259.55
2018-12-05T04:50:59.730Z,99255.14
2018-12-05T04:53:29.000Z,99251.14
2018-12-05T04:55:58.151Z,99244.25
2018-12-05T04:58:27.388Z,99257.41
2018-12-05T05:00:56.554Z,99254.64
2018-12-05T05:03:25.998Z,99255.79
2018-12-05T05:05:55.195Z,99252.73
2018-12-05T05:08:25.000Z,99255.47
2018-12-05T05:10:54.546Z,99256.87
2018-12-05T05:13:23.839Z,99249.56
2018-12-05T05:15:53.242Z,99250.94
2018-12-05T05:18:22.649Z,99248.00
2018-12-05T05:20:51.954Z,99246.67
2018-12-05T05:23:21.223Z,99251.84
2018-12-05T05:25:50.525Z,99248.70
2018-12-05T05:28:19.745Z,99251.58
2018-12-05T05:30:49.014Z,99252.41
2018-12-05T05:33:18.224Z,99268.95
2018-12-05T05:35:47.378Z,99265.44
2018-12-05T05:38:16.765Z,99267.40
2018-12-05T05:40:46.006Z,99255.62
2018-12-05T05:43:15.174Z,99255.53
2018-12-05T05:45:44.588Z,99249.46
2018-12-05T05:48:13.844Z,99250.61
2018-12-05T05:50:43.124Z,99251.34
2018-12-05T05:53:12.444Z,99260.97
2018-12-05T05:55:41.744Z,99251.88
2018-12-05T05:58:11.042Z,99241.48
2018-12-05T06:00:40.246Z,99241.61
2018-12-05T06:03:09.422Z,99240.88
2018-12-05T06:05:38.581Z,99237.85
2018-12-05T06:08:07.872Z,99235.38
2018-12-05T06:10:37.156Z,99234.10
2018-12-05T06:13:06.435Z,99246.93
2018-12-05T06:15:35.603Z,99247.34
2018-12-05T06:18:04.893Z,99254.52
2018-12-05T06:20:34.021Z,99257.50
2018-12-05T06:23:03.192Z,99251.55
2018-12-05T06:25:32.412Z,99246.84
2018-12-05T06:28:01.638Z,99252.75
2018-12-05T06:30:30.854Z,99247.27
2018-12-05T06:33:00.128Z,99249.81
2018-12-05T06:35:29.328Z,99241.31
2018-12-05T06:37:58.594Z,99242.19
2018-12-05T06:40:27.758Z,99246.39
2018-12-05T06:42:56.914Z,99254.40
2018-12-05T06:45:26.224Z,99254.48
2018-12-05T06:47:55.512Z,99252.38
2018-12-05T06:50:24.662Z,99253.28
2018-12-05T06:52:53.914Z,99250.81
2018-12-05T06:55:23.084Z,99250.48
2018-12-05T06:57:52.408Z,99250.44
2018-12-05T07:00:21.560Z,99250.39
2018-12-05T07:02:50.724Z,99247.51
2018-12-05T07:05:20.000Z,99250.59
2018-12-05T07:07:49.133Z,99249.89
2018-12-05T07:10:18.396Z,99257.69
2018-12-05T07:12:47.704Z,99259.80
2018-12-05T07:15:17.280Z,99270.56
2018-12-05T07:17:46.766Z,99268.05
2018-12-05T07:20:16.085Z,99271.09
2018-12-05T07:22:45.248Z,99274.14
2018-12-05T07:25:14.422Z,99270.80
2018-12-05T07:27:43.616Z,99270.05
2018-12-05T07:30:12.778Z,99265.42
2018-12-05T07:32:42.041Z,99259.55
2018-12-05T07:35:11.299Z,99261.84
2018-12-05T07:37:40.473Z,99255.44
2018-12-05T07:40:09.714Z,99257.73
2018-12-05T07:42:38.869Z,99252.34
2018-12-05T07:45:08.087Z,99263.52
2018-12-05T07:47:37.393Z,99265.73
2018-12-05T07:50:07.095Z,99265.05
2018-12-05T07:52:36.272Z,99268.16
2018-12-05T07:55:05.666Z,99275.95
2018-12-05T07:57:34.899Z,99278.58
2018-12-05T08:00:06.324Z,99276.02
2018-12-05T08:02:35.854Z,99287.62
2018-12-05T08:05:05.250Z,99285.70
2018-12-05T08:07:34.417Z,99283.34
2018-12-05T08:10:04.384Z,99281.28
2018-12-05T08:12:33.518Z,99274.52
2018-12-05T08:15:02.685Z,99274.16
2018-12-05T08:17:31.862Z,99280.88
2018-12-05T08:20:01.163Z,99284.77
2018-12-05T08:22:30.314Z,99286.78
2018-12-05T08:24:59.481Z,99276.63
2018-12-05T08:27:28.717Z,99269.06
2018-12-05T08:29:57.853Z,99267.01
2018-12-05T08:32:27.510Z,99266.38
2018-12-05T08:34:56.718Z,99270.93
2018-12-05T08:37:26.444Z,99279.49
2018-12-05T08:39:55.666Z,99274.30
2018-12-05T08:42:24.826Z,99275.56
2018-12-05T08:44:54.404Z,99276.93
2018-12-05T08:47:23.528Z,99281.70
2018-12-05T08:49:52.665Z,99280.63
2018-12-05T08:52:21.848Z,99286.34
2018-12-05T08:54:51.018Z,99285.95
2018-12-05T08:57:20.169Z,99273.55
2018-12-05T08:59:49.428Z,99274.55
2018-12-05T09:02:18.638Z,99272.66
2018-12-05T09:04:47.801Z,99272.45
2018-12-05T09:07:16.960Z,99273.89
2018-12-05T09:09:46.211Z,99276.16
2018-12-05T09:12:15.442Z,99282.14
2018-12-05T09:14:44.607Z,99283.33
2018-12-05T09:17:13.834Z,99286.28
2018-12-05T09:19:43.004Z,99288.43
2018-12-05T09:22:12.228Z,99287.63
2018-12-05T09:24:41.527Z,99286.92
2018-12-05T09:27:10.831Z,99283.20
2018-12-05T09:29:39.964Z,99289.20
2018-12-05T09:32:09.202Z,99282.21
2018-12-05T09:34:38.316Z,99286.42
2018-12-05T09:37:07.703Z,99285.64
2018-12-05T09:39:36.922Z,99282.30
2018-12-05T09:42:06.069Z,99278.11
2018-12-05T09:44:35.205Z,99282.44
2018-12-05T09:47:04.366Z,99280.75
2018-12-05T09:49:33.678Z,99276.54
2018-12-05T09:52:02.869Z,99274.40
2018-12-05T09:54:32.107Z,99269.37
2018-12-05T09:57:01.674Z,99266.86
2018-12-05T09:59:30.863Z,99255.31
2018-12-05T10:02:00.081Z,99251.88
2018-12-05T10:04:29.241Z,99245.91
2018-12-05T10:06:58.503Z,99250.64
2018-12-05T10:09:27.623Z,99248.58
2018-12-05T10:11:57.011Z,99242.59
2018-12-05T10:14:26.125Z,99240.36
2018-12-05T10:16:55.251Z,99239.06
2018-12-05T10:19:24.420Z,99236.55
2018-12-05T10:21:53.628Z,99245.25
2018-12-05T10:24:22.823Z,99236.70
2018-12-05T10:26:52.193Z,99233.72
2018-12-05T10:29:21.403Z,99229.02
2018-12-05T10:31:50.591Z,99227.70
2018-12-05T10:34:21.382Z,99223.87
2018-12-05T10:36:50.536Z,99213.19
2018-12-05T10:39:19.677Z,99202.94
2018-12-05T10:41:48.917Z,99200.79
2018-12-05T10:44:18.081Z,99189.58
2018-12-05T10:46:47.321Z,99190.39
2018-12-05T10:49:16.451Z,99193.89
2018-12-05T10:51:45.563Z,99190.02
2018-12-05T10:54:14.742Z,99192.25
2018-12-05T10:56:44.002Z,99183.69
2018-12-05T10:59:13.284Z,99185.87
2018-12-05T11:01:48.024Z,99176.84
2018-12-05T11:04:21.726Z,99174.69
2018-12-05T11:06:56.730Z,99175.97
2018-12-05T11:09:31.592Z,99172.98
2018-12-05T11:12:06.303Z,99172.55
2018-12-05T11:14:41.006Z,99173.40
2018-12-05T11:17:15.793Z,99169.54
2018-12-05T11:19:56.627Z,99174.70
2018-12-05T11:22:31.249Z,99159.67
2018-12-05T11:25:05.253Z,99156.25
2018-12-05T11:27:34.541Z,99156.69
2018-12-05T11:30:04.361Z,99148.50
2018-12-05T11:32:33.511Z,99135.62
2018-12-05T11:35:02.687Z,99142.09
2018-12-05T11:37:31.890Z,99137.78
2018-12-05T11:40:01.068Z,99125.76
2018-12-05T11:42:30.207Z,99131.36
2018-12-05T11:44:59.441Z,99128.78
2018-12-05T11:47:28.683Z,99122.77
2018-12-05T11:49:57.879Z,99129.20
2018-12-05T11:52:27.073Z,99116.33
2018-12-05T11:54:56.339Z,99111.17
2018-12-05T11:57:25.483Z,99109.45
2018-12-05T11:59:54.636Z,99104.70
2018-12-05T12:02:23.830Z,99099.97
2018-12-05T12:04:53.082Z,99097.41
2018-12-05T12:07:22.256Z,99089.23
2018-12-05T12:09:51.479Z,99084.94
2018-12-05T12:12:26.347Z,99082.81
2018-12-05T12:14:55.555Z,99077.66
2018-12-05T12:17:24.715Z,99078.06
2018-12-05T12:19:53.984Z,99081.94
2018-12-05T12:22:23.156Z,99081.09
2018-12-05T12:24:52.354Z,99074.62
2018-12-05T12:27:21.581Z,99075.92
2018-12-05T12:29:50.750Z,99072.92
2018-12-05T12:32:19.891Z,99073.77
2018-12-05T12:34:49.147Z,99072.90
2018-12-05T12:37:18.582Z,99073.78
2018-12-05T12:39:47.709Z,99070.34
2018-12-05T12:42:16.887Z,99069.47
2018-12-05T12:44:46.177Z,99062.61
2018-12-05T12:47:15.338Z,99068.63
2018-12-05T12:49:44.643Z,99061.75
2018-12-05T12:52:14.003Z,99066.03
2018-12-05T12:54:43.173Z,99057.02
2018-12-05T12:57:12.318Z,99056.16
2018-12-05T12:59:41.453Z,99050.13
2018-12-05T13:02:10.623Z,99054.45
2018-12-05T13:04:39.835Z,99053.14
2018-12-05T13:10:05.825Z,99045.41
2018-12-05T13:12:35.106Z,99039.83
2018-12-05T13:15:04.829Z,99024.78
2018-12-05T13:17:33.976Z,99026.07
2018-12-05T13:20:03.671Z,99029.09
2018-12-05T13:22:32.836Z,99017.92
2018-12-05T13:25:02.016Z,99024.38
2018-12-05T13:27:31.187Z,99020.08
2018-12-05T13:30:08.957Z,99011.05
2018-12-05T13:32:38.089Z,98999.00
2018-12-05T13:35:07.579Z,99007.19
2018-12-05T13:37:36.741Z,99005.47
2018-12-05T13:40:06.977Z,98998.16
2018-12-05T13:42:36.258Z,99000.30
2018-12-05T13:45:05.843Z,98995.16
2018-12-05T13:47:35.001Z,98986.99
2018-12-05T13:50:04.543Z,98987.83
2018-12-05T13:52:33.747Z,98991.72
2018-12-05T13:55:02.971Z,98988.72
2018-12-05T13:57:32.238Z,98987.41
2018-12-05T14:00:01.396Z,98989.58
2018-12-05T14:02:30.517Z,98985.70
2018-12-05T14:04:59.691Z,98980.98
2018-12-05T14:07:28.937Z,98975.38
2018-12-05T14:09:59.153Z,98980.52
2018-12-05T14:12:30.361Z,98985.70
2018-12-05T14:14:59.574Z,98980.53
2018-12-05T14:17:28.902Z,98981.39
2018-12-05T14:19:58.070Z,98974.51
2018-12-05T14:22:27.195Z,98963.37
2018-12-05T14:24:56.369Z,98962.08
2018-12-05T14:27:25.570Z,98956.48
2018-12-05T14:29:54.849Z,98964.67
2018-12-05T14:32:24.012Z,98962.94
2018-12-05T14:34:53.173Z,98962.50
2018-12-05T14:37:22.336Z,98956.09
2018-12-05T14:39:51.511Z,98960.38
2018-12-05T14:42:20.669Z,98956.52
2018-12-05T14:44:49.799Z,98957.37
2018-12-05T14:47:19.064Z,98953.06
2018-12-05T14:49:48.363Z,98947.94
2018-12-05T14:52:17.594Z,98945.78
2018-12-05T14:54:46.809Z,98945.77
2018-12-05T14:57:16.007Z,98938.03
2018-12-05T14:59:45.889Z,98937.20
2018-12-05T15:02:15.275Z,98935.04
2018-12-05T15:04:44.449Z,98939.78
2018-12-05T15:07:13.743Z,98949.23
2018-12-05T15:09:42.922Z,98944.94
2018-12-05T15:12:12.074Z,98948.78
2018-12-05T15:14:41.479Z,98950.49
2018-12-05T15:17:10.669Z,98946.66
2018-12-05T15:19:39.942Z,98941.49
2018-12-05T15:22:09.168Z,98937.62
2018-12-05T15:24:38.442Z,98940.19
2018-12-05T15:30:23.253Z,98942.77
2018-12-05T15:32:52.411Z,98947.52
2018-12-05T15:35:21.567Z,98939.33
2018-12-05T15:37:50.779Z,98939.33
2018-12-05T15:40:20.213Z,98945.34
2018-12-05T15:42:49.347Z,98943.22
2018-12-05T15:45:21.656Z,98942.35
2018-12-05T15:47:49.809Z,98934.19
2018-12-05T15:50:19.059Z,98927.33
2018-12-05T15:52:48.225Z,98920.02
2018-12-05T15:55:17.487Z,98906.31
2018-12-05T15:57:46.655Z,98902.00
2018-12-05T16:00:15.792Z,98912.30
2018-12-05T16:02:44.969Z,98912.73
2018-12-05T16:05:14.177Z,98910.60
2018-12-05T16:07:43.323Z,98909.74
2018-12-05T16:10:12.976Z,98915.75
2018-12-05T16:12:42.197Z,98910.16
2018-12-05T16:15:11.431Z,98895.99
2018-12-05T16:17:40.689Z,98900.28
2018-12-05T16:20:09.879Z,98894.27
2018-12-05T16:22:39.006Z,98894.30
2018-12-05T16:25:08.149Z,98885.71
2018-12-05T16:27:37.299Z,98882.70
2018-12-05T16:30:07.137Z,98879.27
2018-12-05T16:32:36.295Z,98872.39
2018-12-05T16:35:05.517Z,98858.65
2018-12-05T16:37:34.696Z,98862.11
2018-12-05T16:40:05.282Z,98862.96
2018-12-05T16:42:34.449Z,98866.38
2018-12-05T16:45:03.782Z,98858.23
2018-12-05T16:47:32.951Z,98864.23
2018-12-05T16:50:02.370Z,98860.39
2018-12-05T16:52:31.535Z,98866.39
2018-12-05T16:55:00.658Z,98861.66
2018-12-05T16:57:30.009Z,98857.37
2018-12-05T16:59:59.244Z,98859.08
2018-12-05T17:02:28.363Z,98855.65
2018-12-05T17:04:57.625Z,98853.94
2018-12-05T17:07:26.774Z,98859.11
2018-12-05T17:09:55.979Z,98866.81
2018-12-05T17:12:25.392Z,98858.22
2018-12-05T17:14:54.552Z,98860.36
2018-12-05T17:17:23.679Z,98856.09
2018-12-05T17:19:52.939Z,98853.95
2018-12-05T17:22:22.075Z,98855.66
2018-12-05T17:24:51.255Z,98856.50
2018-12-05T17:27:20.418Z,98856.50
2018-12-05T17:29:49.557Z,98861.23
2018-12-05T17:32:18.804Z,98853.06
2018-12-05T17:34:47.993Z,98847.09
2018-12-05T17:37:17.158Z,98848.79
2018-12-05T17:39:46.311Z,98851.34
2018-12-05T17:42:15.464Z,98844.51
2018-12-05T17:44:44.590Z,98845.34
2018-12-05T17:47:13.817Z,98843.64
2018-12-05T17:49:43.002Z,98841.04
2018-12-05T17:52:12.191Z,98836.75
2018-12-05T17:54:41.449Z,98825.60
2018-12-05T17:57:10.597Z,98823.05
2018-12-05T17:59:39.865Z,98815.31
2018-12-05T18:02:15.238Z,98823.91
2018-12-05T18:04:45.105Z,98825.19
2018-12-05T18:07:14.279Z,98822.61
2018-12-05T18:09:43.526Z,98814.02
2018-12-05T18:12:17.721Z,98817.47
2018-12-05T18:14:47.067Z,98809.75
2018-12-05T18:17:16.219Z,98810.60
2018-12-05T18:19:45.399Z,98801.16
2018-12-05T18:22:14.580Z,98796.00
2018-12-05T18:24:43.819Z,98794.72
2018-12-05T18:27:12.950Z,98785.30
2018-12-05T18:29:42.144Z,98783.56
2018-12-05T18:32:11.369Z,98781.85
2018-12-05T18:34:40.580Z,98777.58
2018-12-05T18:37:14.582Z,98776.28
2018-12-05T18:39:46.616Z,98773.28
2018-12-05T18:42:15.834Z,98771.56
2018-12-05T18:44:45.479Z,98757.85
2018-12-05T18:47:14.974Z,98761.27
2018-12-05T18:49:44.300Z,98760.42
2018-12-05T18:52:14.448Z,98753.56
2018-12-05T18:54:43.611Z,98759.55
2018-12-05T18:57:13.004Z,98755.73
2018-12-05T18:59:42.301Z,98752.29
2018-12-05T19:02:11.580Z,98751.02
2018-12-05T19:04:40.768Z,98747.13
2018-12-05T19:07:10.505Z,98749.71
2018-12-05T19:09:40.018Z,98747.12
2018-12-05T19:12:09.289Z,98741.55
2018-12-05T19:14:44.043Z,98737.26
2018-12-05T19:17:13.319Z,98734.27
2018-12-05T19:19:42.637Z,98730.42
2018-12-05T19:22:12.346Z,98732.55
2018-12-05T19:24:41.533Z,98722.28
2018-12-05T19:27:10.828Z,98714.56
2018-12-05T19:29:40.295Z,98710.72
2018-12-05T19:32:09.429Z,98706.44
2018-12-05T19:34:38.558Z,98707.27
2018-12-05T19:37:07.758Z,98702.98
2018-12-05T19:39:36.986Z,98696.57
2018-12-05T19:42:06.262Z,98696.16
2018-12-05T19:44:35.441Z,98692.69
2018-12-05T19:47:04.678Z,98690.58
2018-12-05T19:49:33.860Z,98687.57
2018-12-05T19:52:03.237Z,98684.13
2018-12-05T19:54:32.479Z,98681.55
2018-12-05T19:57:01.684Z,98683.70
2018-12-05T19:59:30.867Z,98684.99
2018-12-05T20:02:00.123Z,98681.13
2018-12-05T20:04:29.478Z,98684.98
2018-12-05T20:06:58.775Z,98684.98
2018-12-05T20:09:28.145Z,98681.14
2018-12-05T20:11:57.440Z,98676.88
2018-12-05T20:14:28.725Z,98677.73
2018-12-05T20:16:58.134Z,98670.86
2018-12-05T20:19:27.228Z,98672.15
2018-12-05T20:21:56.447Z,98673.42
2018-12-05T20:24:25.647Z,98680.30
2018-12-05T20:26:54.795Z,98680.70
2018-12-05T20:29:24.014Z,98676.84
2018-12-05T20:31:53.204Z,98679.00
2018-12-05T20:34:22.299Z,98673.00
2018-12-05T20:36:51.611Z,98664.86
2018-12-05T20:39:25.887Z,98660.55
2018-12-05T20:41:59.218Z,98659.30
2018-12-05T20:44:28.519Z,98656.28
2018-12-05T20:46:57.716Z,98657.55
2018-12-05T20:49:27.227Z,98655.86
2018-12-05T20:51:56.398Z,98642.56
2018-12-05T20:54:25.717Z,98637.86
2018-12-05T20:56:54.926Z,98632.29
2018-12-05T20:59:24.117Z,98622.44
2018-12-05T21:01:53.787Z,98619.87
2018-12-05T21:04:24.760Z,98611.28
2018-12-05T21:06:54.077Z,98608.71
2018-12-05T21:09:23.265Z,98606.15
2018-12-05T21:11:52.543Z,98606.98
2018-12-05T21:14:21.727Z,98611.67
2018-12-05T21:16:50.854Z,98604.83
2018-12-05T21:19:19.983Z,98601.83
2018-12-05T21:21:49.296Z,98588.53
2018-12-05T21:24:18.925Z,98581.64
2018-12-05T21:26:48.169Z,98572.64
2018-12-05T21:29:17.463Z,98575.64
2018-12-05T21:31:56.256Z,98579.51
2018-12-05T21:34:28.557Z,98586.37
2018-12-05T21:36:57.959Z,98583.77
2018-12-05T21:39:27.088Z,98591.06
2018-12-05T21:41:56.628Z,98581.63
2018-12-05T21:44:25.959Z,98573.05
2018-12-05T21:46:55.265Z,98570.05
2018-12-05T21:49:24.649Z,98568.33
2018-12-05T21:51:53.961Z,98565.33
2018-12-05T21:54:23.587Z,98559.78
2018-12-05T21:56:53.090Z,98544.78
2018-12-05T21:59:22.262Z,98546.06
2018-12-05T22:01:51.890Z,98540.92
2018-12-05T22:04:21.078Z,98532.34
2018-12-05T22:06:50.214Z,98526.34
2018-12-05T22:09:19.458Z,98525.91
2018-12-05T22:11:48.629Z,98530.59
2018-12-05T22:14:17.840Z,98529.73
2018-12-05T22:16:47.067Z,98522.45
2018-12-05T22:19:16.363Z,98531.88
2018-12-05T22:21:45.870Z,98538.75
2018-12-05T22:24:15.116Z,98536.60
2018-12-05T22:26:44.372Z,98537.89
2018-12-05T22:29:13.639Z,98532.73
2018-12-05T22:31:42.870Z,98540.89
2018-12-05T22:34:12.145Z,98547.32
2018-12-05T22:36:41.435Z,98533.59
2018-12-05T22:39:10.588Z,98530.95
2018-12-05T22:41:39.747Z,98523.23
2018-12-05T22:44:08.926Z,98518.52
2018-12-05T22:46:38.054Z,98531.81
2018-12-05T22:49:07.304Z,98527.91
2018-12-05T22:51:36.528Z,98521.48
2018-12-05T22:54:05.752Z,98522.34
2018-12-05T22:56:35.150Z,98524.48
2018-12-05T22:59:04.260Z,98525.34
2018-12-05T23:01:33.547Z,98527.48
2018-12-05T23:04:02.948Z,98525.34
2018-12-05T23:06:32.146Z,98524.05
2018-12-05T23:09:01.450Z,98515.90
2018-12-05T23:11:30.956Z,98517.19
2018-12-05T23:14:00.436Z,98504.32
2018-12-05T23:16:29.563Z,98490.59
2018-12-05T23:18:58.752Z,98490.16
2018-12-05T23:21:27.957Z,98491.84
2018-12-05T23:23:57.254Z,98476.91
2018-12-05T23:26:26.515Z,98472.20
2018-12-05T23:28:55.746Z,98467.91
2018-12-05T23:31:25.050Z,98473.05
2018-12-05T23:33:54.210Z,98482.06
2018-12-05T23:36:23.446Z,98490.21
2018-12-05T23:38:52.612Z,98496.21
2018-12-05T23:41:21.720Z,98500.93
2018-12-05T23:43:50.932Z,98498.78
2018-12-05T23:46:20.103Z,98487.20
2018-12-05T23:48:49.213Z,98476.91
2018-12-05T23:51:18.390Z,98474.77
2018-12-05T23:53:47.625Z,98490.64
2018-12-05T23:56:16.829Z,98489.36
2018-12-05T23:58:45.987Z,98478.63
